Time;durP1;ratioP1;P1;durP2;ratioP2;P2;SDS_P1;SDS_P2;PMS_P1;PMS_P2;Temp;Humidity;BMP_temperature;BMP_pressure;BME280_temperature;BME280_humidity;BME280_pressure;Samples;Min_cycle;Max_cycle;Signal;HPM_P1;HPM_P2
2023/04/16 00:02:12;;;;;;;10.30;6.80;;;;;;;6.77;91.28;101675.88;106208;1258;61244;-87
2023/04/16 00:04:40;;;;;;;9.20;8.20;;;;;;;6.75;91.53;101672.80;106188;1257;73564;-86
2023/04/16 00:07:08;;;;;;;11.00;8.60;;;;;;;6.76;91.92;101681.29;106128;1253;65115;-88
2023/04/16 00:09:36;;;;;;;10.80;8.90;;;;;;;6.77;91.95;101685.79;106199;1257;73507;-87
2023/04/16 00:12:05;;;;;;;10.90;9.90;;;;;;;6.75;91.96;101679.75;106243;1257;60355;-83
2023/04/16 00:14:32;;;;;;;11.40;10.20;;;;;;;6.74;92.33;101683.63;106126;1254;61414;-87
2023/04/16 00:16:59;;;;;;;12.50;8.30;;;;;;;6.72;92.25;101678.63;106232;1253;73844;-87
2023/04/16 00:19:26;;;;;;;12.20;9.00;;;;;;;6.72;92.37;101679.67;105998;1257;65211;-87
2023/04/16 00:21:53;;;;;;;9.80;7.40;;;;;;;6.70;92.49;101676.77;105903;1257;74574;-87
2023/04/16 00:24:20;;;;;;;13.80;9.50;;;;;;;6.68;92.60;101681.15;105901;1257;61359;-87
2023/04/16 00:26:47;;;;;;;13.40;9.10;;;;;;;6.66;92.82;101672.70;106029;1257;60344;-86
2023/04/16 00:29:15;;;;;;;16.10;10.40;;;;;;;6.67;92.71;101678.93;105844;1254;74814;-86
2023/04/16 00:31:41;;;;;;;12.40;8.70;;;;;;;6.68;92.88;101673.84;106144;1254;63826;-87
2023/04/16 00:34:08;;;;;;;10.90;9.10;;;;;;;6.71;92.76;101676.21;106288;1256;72575;-86
2023/04/16 00:36:36;;;;;;;10.60;9.10;;;;;;;6.73;92.63;101677.18;106004;1257;62141;-89
2023/04/16 00:39:03;;;;;;;11.30;8.40;;;;;;;6.75;92.68;101686.54;105896;1254;61362;-86
2023/04/16 00:41:31;;;;;;;7.90;7.00;;;;;;;6.72;92.52;101675.66;106220;1257;74668;-84
2023/04/16 00:43:58;;;;;;;10.10;7.70;;;;;;;6.70;92.78;101678.14;106164;1257;63889;-85
2023/04/16 00:46:24;;;;;;;9.10;8.20;;;;;;;6.70;92.54;101673.96;106213;1254;73483;-87
2023/04/16 00:48:52;;;;;;;11.20;7.50;;;;;;;6.70;92.59;101681.43;105981;1259;61416;-89
2023/04/16 00:51:20;;;;;;;16.40;7.50;;;;;;;6.72;92.56;101673.58;106024;1253;61173;-87
2023/04/16 00:53:47;;;;;;;10.20;8.00;;;;;;;6.73;92.25;101676.67;106028;1253;73887;-89
2023/04/16 00:56:15;;;;;;;13.90;7.60;;;;;;;6.74;92.49;101676.49;106266;1257;63752;-84
2023/04/16 00:58:44;;;;;;;9.30;7.80;;;;;;;6.78;92.48;101678.63;106155;1257;74550;-85
2023/04/16 01:01:13;;;;;;;9.30;6.70;;;;;;;6.80;92.12;101679.42;107838;1253;62415;-87
2023/04/16 01:03:45;;;;;;;10.20;6.60;;;;;;;6.80;91.90;101676.83;108458;1253;60120;-88
2023/04/16 01:06:13;;;;;;;8.80;5.60;;;;;;;6.80;91.75;101672.14;109552;1254;73790;-85
2023/04/16 01:08:40;;;;;;;9.20;5.70;;;;;;;6.80;91.71;101674.92;109710;1253;63788;-86
2023/04/16 01:11:07;;;;;;;8.90;5.90;;;;;;;6.81;91.58;101677.85;109650;1254;72616;-88
2023/04/16 01:13:37;;;;;;;8.20;6.40;;;;;;;6.81;91.50;101676.98;109640;1253;60616;-84
2023/04/16 01:16:10;;;;;;;10.40;6.20;;;;;;;6.80;91.03;101671.80;109677;1253;60059;-86
2023/04/16 01:18:38;;;;;;;6.50;5.70;;;;;;;6.77;91.00;101666.13;109572;1254;73771;-88
2023/04/16 01:21:05;;;;;;;8.20;5.90;;;;;;;6.77;90.97;101665.45;109613;1252;62832;-84
2023/04/16 01:23:32;;;;;;;15.80;5.80;;;;;;;6.77;90.89;101661.96;109525;1254;72637;-88
2023/04/16 01:25:59;;;;;;;5.50;4.60;;;;;;;6.78;90.80;101660.02;109000;1254;62112;-86
2023/04/16 01:28:28;;;;;;;7.50;5.10;;;;;;;6.76;90.61;101658.70;106248;1254;60429;-86
2023/04/16 01:30:54;;;;;;;7.40;5.50;;;;;;;6.70;90.67;101646.34;107660;1253;74286;-85
2023/04/16 01:33:42;;;;;;;10.90;5.80;;;;;;;6.64;90.93;101646.84;108824;1254;63723;-85
2023/04/16 01:36:10;;;;;;;6.70;5.40;;;;;;;6.62;91.07;101647.61;109211;1252;72383;-84
2023/04/16 01:38:37;;;;;;;8.80;6.50;;;;;;;6.58;91.16;101644.41;106181;1254;61197;-87
2023/04/16 01:41:05;;;;;;;9.10;5.00;;;;;;;6.54;91.26;101649.90;106724;1254;61428;-84
2023/04/16 01:43:32;;;;;;;7.20;5.20;;;;;;;6.51;91.14;101650.70;108521;1253;74316;-85
2023/04/16 01:46:17;;;;;;;7.30;5.90;;;;;;;6.47;91.22;101649.73;108975;1257;63725;-85
2023/04/16 01:48:44;;;;;;;;;;;;;;;6.43;91.18;101652.26;106347;1256;73678;-86
2023/04/16 01:51:12;;;;;;;6.70;4.50;;;;;;;6.40;91.17;101647.49;106912;1253;729068;-84
2023/04/16 01:55:10;;;;;;;10.70;5.10;;;;;;;6.37;91.15;101643.73;102656;1292;614559;-91
2023/04/16 01:57:38;;;;;;;9.10;6.20;;;;;;;6.33;91.07;101639.52;105274;1268;59286;-88
2023/04/16 02:00:07;;;;;;;8.10;5.80;;;;;;;6.30;91.00;101637.69;105137;1272;60347;-86
2023/04/16 02:02:45;;;;;;;9.30;5.50;;;;;;;6.28;90.95;101639.29;104935;1268;73054;-88
2023/04/16 02:05:14;;;;;;;9.10;5.20;;;;;;;6.22;90.88;101641.52;104973;1273;63644;-87
2023/04/16 02:07:42;;;;;;;9.90;5.70;;;;;;;6.16;90.88;101647.91;104770;1270;659064;-87
2023/04/16 02:10:10;;;;;;;8.90;4.80;;;;;;;6.11;90.97;101650.46;105376;1268;62032;-88
2023/04/16 02:12:40;;;;;;;7.50;4.50;;;;;;;6.08;91.35;101643.45;106137;1253;61375;-86
2023/04/16 02:15:07;;;;;;;5.80;5.00;;;;;;;6.03;91.23;101638.16;106120;1253;73778;-87
2023/04/16 02:17:35;;;;;;;8.10;5.00;;;;;;;6.01;91.47;101637.35;106284;1253;63750;-87
2023/04/16 02:20:11;;;;;;;7.30;5.60;;;;;;;5.98;91.41;101632.05;106313;1253;73618;-88
2023/04/16 02:22:43;;;;;;;9.70;6.00;;;;;;;6.00;91.49;101635.47;106028;1253;60648;-87
2023/04/16 02:25:13;;;;;;;7.70;6.00;;;;;;;5.99;91.60;101634.80;106145;1253;60338;-86
2023/04/16 02:27:40;;;;;;;9.70;5.90;;;;;;;5.96;91.47;101638.02;106165;1256;73716;-86
2023/04/16 02:30:19;;;;;;;8.30;6.30;;;;;;;5.90;91.55;101639.67;105778;1254;64116;-86
2023/04/16 02:32:46;;;;;;;14.50;5.90;;;;;;;5.87;91.77;101639.05;106109;1253;72910;-86
2023/04/16 02:35:13;;;;;;;7.80;6.10;;;;;;;5.85;91.93;101642.75;105992;1260;62680;-86
2023/04/16 02:37:40;;;;;;;7.00;5.40;;;;;;;5.84;92.23;101647.11;106138;1254;61225;-87
2023/04/16 02:40:10;;;;;;;9.10;6.10;;;;;;;5.83;92.28;101648.36;106253;1259;73116;-86
2023/04/16 02:42:41;;;;;;;9.00;6.70;;;;;;;5.82;92.52;101644.73;105893;1254;65725;-86
2023/04/16 02:45:09;;;;;;;9.20;5.90;;;;;;;5.81;92.49;101649.42;105810;1257;72685;-88
2023/04/16 02:47:36;;;;;;;7.50;6.80;;;;;;;5.79;92.50;101653.12;105928;1259;60378;-87
2023/04/16 02:50:03;;;;;;;12.80;7.60;;;;;;;5.76;92.37;101659.61;105867;1258;61326;-90
2023/04/16 02:52:31;;;;;;;10.80;6.70;;;;;;;5.76;92.53;101672.63;105890;1256;73005;-85
2023/04/16 02:54:59;;;;;;;11.10;6.80;;;;;;;5.76;92.63;101671.08;106082;1259;64568;-87
2023/04/16 02:57:26;;;;;;;10.40;7.80;;;;;;;5.75;92.87;101669.19;106047;1258;72411;-86
2023/04/16 02:59:53;;;;;;;11.50;6.80;;;;;;;5.77;92.93;101670.86;105820;1258;61728;-90
2023/04/16 03:02:20;;;;;;;11.90;7.20;;;;;;;5.79;92.94;101683.30;105784;1254;60345;-87
2023/04/16 03:04:47;;;;;;;16.20;8.10;;;;;;;5.83;93.08;101691.21;105901;1254;74419;-87
2023/04/16 03:07:14;;;;;;;13.40;8.30;;;;;;;5.88;92.93;101689.71;105904;1258;63661;-88
2023/04/16 03:09:42;;;;;;;13.30;7.40;;;;;;;5.90;92.72;101690.19;105956;1258;73357;-86
2023/04/16 03:12:09;;;;;;;12.80;7.70;;;;;;;5.93;92.72;101692.72;105880;1260;60377;-87
2023/04/16 03:14:36;;;;;;;13.70;6.90;;;;;;;5.92;92.46;101695.86;105826;1258;60325;-85
2023/04/16 03:17:03;;;;;;;15.20;8.10;;;;;;;5.90;92.40;101693.46;105856;1258;72925;-85
2023/04/16 03:19:30;;;;;;;14.40;7.00;;;;;;;5.89;92.39;101695.08;105882;1258;64749;-85
2023/04/16 03:21:57;;;;;;;11.50;6.60;;;;;;;5.88;92.59;101690.41;106055;1258;71895;-86
2023/04/16 03:24:23;;;;;;;11.40;6.50;;;;;;;5.89;92.70;101699.05;106044;1259;60051;-86
2023/04/16 03:26:50;;;;;;;12.80;7.40;;;;;;;5.90;92.54;101695.39;105936;1254;60677;-88
2023/04/16 03:29:18;;;;;;;11.10;7.40;;;;;;;5.92;92.48;101702.80;105768;1260;73577;-87
2023/04/16 03:31:45;;;;;;;10.20;6.70;;;;;;;5.95;92.23;101706.41;105871;1258;63684;-86
2023/04/16 03:34:11;;;;;;;10.30;6.50;;;;;;;5.93;92.04;101715.98;105854;1258;71682;-86
2023/04/16 03:36:40;;;;;;;6.90;5.80;;;;;;;5.91;92.15;101714.80;106003;1260;61149;-85
2023/04/16 03:39:07;;;;;;;11.30;6.80;;;;;;;5.92;92.11;101715.31;106608;1259;60194;-85
2023/04/16 03:41:36;;;;;;;11.20;6.00;;;;;;;5.94;92.16;101717.88;106177;1258;74136;-83
2023/04/16 03:44:04;;;;;;;7.90;6.10;;;;;;;5.99;92.04;101718.12;105698;1259;62543;-87
2023/04/16 03:58:33;;;;;;;14.50;6.60;;;;;;;6.50;90.42;101729.55;104019;1285;611740;-89
2023/04/16 04:01:01;;;;;;;9.20;5.90;;;;;;;6.67;89.55;101738.01;104918;1283;142457;-87
2023/04/16 04:03:30;;;;;;;8.80;5.90;;;;;;;6.69;89.37;101741.42;105671;1259;61165;-87
2023/04/16 04:05:57;;;;;;;11.10;5.50;;;;;;;6.70;89.02;101746.63;106234;1260;73448;-87
2023/04/16 04:08:28;;;;;;;7.90;5.70;;;;;;;6.68;88.76;101740.40;106097;1259;64867;-87
2023/04/16 04:10:56;;;;;;;8.10;5.90;;;;;;;6.67;88.80;101740.61;105907;1260;73639;-87
2023/04/16 04:13:24;;;;;;;10.90;6.50;;;;;;;6.65;88.32;101739.10;105716;1260;62279;-87
2023/04/16 04:15:51;;;;;;;8.40;5.20;;;;;;;6.62;88.49;101743.49;105864;1265;60246;-88
2023/04/16 04:18:20;;;;;;;8.40;5.90;;;;;;;6.63;88.49;101746.59;106053;1259;73325;-88
2023/04/16 04:20:47;;;;;;;8.00;5.60;;;;;;;6.69;88.60;101750.10;106480;1261;64861;-85
2023/04/16 04:23:16;;;;;;;6.50;5.60;;;;;;;6.82;88.58;101746.48;107255;1261;72418;-84
2023/04/16 04:25:44;;;;;;;12.60;5.70;;;;;;;6.97;87.93;101749.92;106949;1261;60439;-86
2023/04/16 04:28:12;;;;;;;10.30;6.40;;;;;;;7.10;87.55;101751.48;106193;1261;59975;-85
2023/04/16 04:30:39;;;;;;;12.00;7.10;;;;;;;7.20;86.62;101753.10;106007;1260;73802;-87
2023/04/16 04:33:06;;;;;;;8.30;6.00;;;;;;;7.26;85.84;101753.28;106212;1254;63879;-86
2023/04/16 04:35:35;;;;;;;9.80;5.70;;;;;;;7.28;85.42;101754.09;106314;1257;73646;-87
2023/04/16 04:38:02;;;;;;;8.60;7.40;;;;;;;7.37;84.99;101751.76;106303;1254;61067;-86
2023/04/16 04:40:36;;;;;;;6.60;5.00;;;;;;;7.52;84.78;101749.22;106897;1254;60907;-87
2023/04/16 04:43:03;;;;;;;7.70;5.10;;;;;;;7.73;83.95;101759.58;106383;1254;73040;-86
2023/04/16 04:45:31;;;;;;;6.90;5.00;;;;;;;7.90;83.58;101757.52;106377;1256;63136;-88
2023/04/16 04:47:59;;;;;;;6.90;5.30;;;;;;;8.12;83.10;101761.55;106306;1253;72566;-85
2023/04/16 04:50:26;;;;;;;7.10;4.70;;;;;;;8.35;82.18;101753.14;106241;1254;60172;-87
2023/04/16 04:52:53;;;;;;;7.10;4.60;;;;;;;8.55;81.27;101750.59;106492;1253;61203;-85
2023/04/16 04:55:21;;;;;;;7.10;4.70;;;;;;;8.64;78.98;101756.05;106393;1254;72167;-85
2023/04/16 04:57:48;;;;;;;6.00;5.40;;;;;;;8.51;78.83;101753.34;106909;1254;63687;-87
2023/04/16 05:00:16;;;;;;;6.20;4.80;;;;;;;8.35;79.38;101754.36;106310;1254;73794;-88
2023/04/16 05:02:53;;;;;;;6.90;5.00;;;;;;;8.24;79.95;101759.59;106138;1252;60382;-88
2023/04/16 05:05:22;;;;;;;11.60;5.90;;;;;;;8.17;79.90;101758.27;106231;1256;60854;-87
2023/04/16 05:07:48;;;;;;;8.70;5.00;;;;;;;8.13;80.06;101761.34;106567;1254;74099;-86
2023/04/16 05:10:16;;;;;;;6.80;5.50;;;;;;;8.07;79.99;101761.17;106544;1256;65285;-86
2023/04/16 05:12:47;;;;;;;8.40;5.00;;;;;;;7.99;80.36;101765.60;106362;1256;74044;-86
2023/04/16 05:15:16;;;;;;;9.00;5.60;;;;;;;7.96;80.74;101765.00;106736;1252;59662;-87
2023/04/16 05:17:45;;;;;;;11.00;5.40;;;;;;;7.98;80.95;101768.60;106782;1254;59982;-86
2023/04/16 05:20:12;;;;;;;6.50;5.40;;;;;;;8.01;80.94;101772.86;106257;1254;73774;-85
2023/04/16 05:22:39;;;;;;;6.00;4.70;;;;;;;8.04;81.05;101771.88;106331;1256;65610;-86
2023/04/16 05:25:06;;;;;;;9.70;4.30;;;;;;;8.12;81.09;101771.14;106360;1257;72561;-86
2023/04/16 05:27:35;;;;;;;10.20;4.80;;;;;;;8.22;80.90;101771.32;106393;1256;61881;-86
2023/04/16 05:30:02;;;;;;;9.00;5.20;;;;;;;8.33;80.58;101770.45;106077;1252;59976;-88
2023/04/16 05:32:35;;;;;;;6.70;5.90;;;;;;;8.45;80.47;101769.40;106204;1253;74256;-83
2023/04/16 05:35:08;;;;;;;6.40;4.80;;;;;;;8.56;79.22;101767.10;106461;1256;63811;-85
2023/04/16 05:37:35;;;;;;;4.90;4.40;;;;;;;8.58;78.37;101763.57;106262;1256;73693;-87
2023/04/16 05:40:02;;;;;;;7.50;4.80;;;;;;;8.54;77.91;101766.48;106395;1254;60354;-87
2023/04/16 05:42:30;;;;;;;11.90;5.20;;;;;;;8.51;78.05;101763.64;106159;1254;60950;-87
2023/04/16 05:44:59;;;;;;;8.90;4.50;;;;;;;8.50;78.39;101768.19;106314;1254;74340;-85
2023/04/16 05:47:25;;;;;;;6.60;4.90;;;;;;;8.57;78.60;101770.23;106322;1257;64727;-86
2023/04/16 05:49:53;;;;;;;6.50;5.00;;;;;;;8.67;78.23;101775.48;106317;1254;72688;-87
2023/04/16 05:52:19;;;;;;;6.70;5.10;;;;;;;8.73;78.02;101770.40;106191;1253;60227;-84
2023/04/16 05:54:46;;;;;;;6.70;5.50;;;;;;;8.82;77.83;101774.95;106225;1254;60061;-87
2023/04/16 05:57:13;;;;;;;9.30;5.10;;;;;;;8.95;77.59;101775.92;106198;1254;74004;-88
2023/04/16 05:59:40;;;;;;;7.50;5.30;;;;;;;9.14;77.50;101776.14;106111;1256;65491;-85
2023/04/16 06:02:07;;;;;;;8.30;5.30;;;;;;;9.39;76.70;101777.17;106406;1253;71707;-88
2023/04/16 06:04:36;;;;;;;6.00;5.00;;;;;;;9.72;75.65;101774.02;106431;1253;61235;-86
2023/04/16 06:07:03;;;;;;;6.80;4.30;;;;;;;10.06;73.70;101774.45;106096;1254;61292;-87
2023/04/16 06:09:32;;;;;;;6.50;4.10;;;;;;;10.34;71.78;101777.02;106715;1254;74000;-85
2023/04/16 06:11:59;;;;;;;7.90;4.40;;;;;;;10.68;71.84;101778.77;106701;1253;63732;-84
2023/04/16 06:14:27;;;;;;;10.90;4.90;;;;;;;11.03;69.26;101779.73;106697;1253;73484;-88
2023/04/16 06:16:55;;;;;;;8.00;3.60;;;;;;;11.27;65.48;101777.33;106483;1253;60427;-88
2023/04/16 06:20:13;;;;;;;6.80;4.80;;;;;;;11.47;63.41;101780.45;107035;1253;61131;-88
2023/04/16 06:26:49;;;;;;;6.30;4.20;;;;;;;12.12;58.49;101782.52;107064;1253;63584;-88
2023/04/16 06:29:16;;;;;;;7.60;4.00;;;;;;;12.22;57.73;101787.51;106106;1254;74201;-86
2023/04/16 06:31:43;;;;;;;6.80;4.20;;;;;;;12.19;57.06;101784.46;106103;1256;62076;-85
2023/04/16 06:35:03;;;;;;;;;;;;;;;;;;;;;
2023/04/16 06:37:39;;;;;;;5.70;4.50;;;;;;;12.15;57.44;101784.51;106374;1252;74124;-86
2023/04/16 06:40:07;;;;;;;12.10;5.90;;;;;;;12.30;57.68;101784.99;106677;1252;64855;-89
2023/04/16 06:42:37;;;;;;;9.40;4.90;;;;;;;12.71;58.17;101784.02;106445;1254;73544;-87
2023/04/16 06:45:05;;;;;;;10.20;5.80;;;;;;;13.30;56.68;101781.41;106262;1256;61264;-87
2023/04/16 06:47:32;;;;;;;13.50;7.90;;;;;;;13.77;53.82;101780.48;107140;1256;61423;-86
2023/04/16 06:49:59;;;;;;;13.90;5.40;;;;;;;13.93;52.34;101783.45;106426;1256;73036;-85
2023/04/16 06:52:29;;;;;;;10.80;5.30;;;;;;;13.94;52.24;101786.74;106580;1254;65444;-87
2023/04/16 06:54:56;;;;;;;11.40;6.10;;;;;;;13.96;51.99;101781.52;106663;1253;73691;-83
2023/04/16 06:57:23;;;;;;;9.80;6.40;;;;;;;14.12;51.34;101787.69;107550;1253;61401;-86
2023/04/16 06:59:50;;;;;;;9.10;6.10;;;;;;;14.27;51.20;101781.03;106481;1253;61418;-87
2023/04/16 07:02:17;;;;;;;13.70;6.50;;;;;;;14.38;50.38;101782.13;106367;1252;74397;-87
2023/04/16 07:04:44;;;;;;;12.20;5.00;;;;;;;14.51;50.22;101780.02;106603;1254;64453;-89
2023/04/16 07:07:11;;;;;;;11.30;5.20;;;;;;;14.68;50.28;101775.86;106596;1254;72648;-86
2023/04/16 07:09:39;;;;;;;10.10;4.90;;;;;;;14.91;49.35;101775.23;106229;1253;61330;-87
2023/04/16 07:12:07;;;;;;;10.70;5.00;;;;;;;14.98;48.65;101772.68;106779;1255;61312;-85
2023/04/16 07:14:34;;;;;;;8.60;4.20;;;;;;;15.02;48.93;101784.61;106887;1252;74601;-88
2023/04/16 07:17:01;;;;;;;5.10;4.30;;;;;;;15.22;48.55;101786.20;106496;1253;63782;-89
2023/04/16 07:19:31;;;;;;;6.40;4.20;;;;;;;15.37;47.45;101782.10;106292;1254;72614;-86
2023/04/16 07:21:59;;;;;;;9.10;6.10;;;;;;;15.50;47.23;101781.13;106686;1256;59785;-83
2023/04/16 07:24:27;;;;;;;9.50;4.60;;;;;;;15.68;46.91;101783.38;106796;1253;61297;-86
2023/04/16 07:26:54;;;;;;;12.20;4.90;;;;;;;15.85;46.88;101782.48;107100;1254;74274;-87
2023/04/16 07:29:23;;;;;;;11.20;5.00;;;;;;;16.09;46.78;101785.59;106653;1254;64753;-86
2023/04/16 07:31:50;;;;;;;5.30;3.40;;;;;;;16.35;45.85;101781.78;106888;1254;72596;-85
2023/04/16 07:34:18;;;;;;;7.90;4.20;;;;;;;16.57;45.00;101772.52;107532;1253;60342;-90
2023/04/16 07:36:45;;;;;;;5.90;4.10;;;;;;;16.76;44.72;101771.80;107251;1252;60382;-87
2023/04/16 07:39:12;;;;;;;11.30;3.60;;;;;;;16.95;43.84;101769.10;107360;1252;74212;-86
2023/04/16 07:41:40;;;;;;;9.70;3.50;;;;;;;17.06;43.47;101760.21;107801;1256;63858;-87
2023/04/16 07:44:07;;;;;;;8.50;4.10;;;;;;;17.15;43.16;101759.21;106671;1254;73763;-86
2023/04/16 07:46:37;;;;;;;8.60;5.30;;;;;;;17.15;43.05;101755.73;106089;1256;62862;-89
2023/04/16 07:49:13;;;;;;;7.80;5.40;;;;;;;17.04;43.32;101750.50;106129;1256;61426;-88
2023/04/16 07:51:40;;;;;;;7.70;4.80;;;;;;;16.97;43.89;101744.92;106214;1256;74205;-87
2023/04/16 07:54:07;;;;;;;10.50;4.10;;;;;;;16.96;43.51;101753.10;106452;1254;64882;-84
2023/04/16 07:56:34;;;;;;;8.80;3.90;;;;;;;16.86;43.90;101738.60;106791;1252;73341;-87
2023/04/16 07:59:02;;;;;;;7.70;4.30;;;;;;;16.82;44.32;101743.17;106570;1253;61137;-89
2023/04/16 08:01:48;;;;;;;6.90;3.30;;;;;;;16.68;43.57;101738.61;106442;1253;60847;-87
2023/04/16 08:04:21;;;;;;;7.70;3.40;;;;;;;16.46;44.26;101729.34;106790;1252;72812;-90
2023/04/16 08:06:50;;;;;;;7.90;3.60;;;;;;;16.37;44.86;101735.86;106738;1256;64769;-87
2023/04/16 08:09:27;;;;;;;4.50;3.50;;;;;;;16.48;43.97;101742.56;107838;1252;72334;-88
2023/04/16 08:11:55;;;;;;;6.70;2.70;;;;;;;16.65;43.78;101743.58;109417;1253;60534;-84
2023/04/16 08:14:22;;;;;;;9.80;3.80;;;;;;;16.98;43.29;101741.90;108945;1253;60451;-87
2023/04/16 08:16:49;;;;;;;4.50;3.10;;;;;;;17.36;42.26;101749.84;109506;1254;73656;-86
2023/04/16 08:19:16;;;;;;;7.30;4.00;;;;;;;17.60;41.63;101747.42;109460;1253;62715;-86
2023/04/16 08:21:43;;;;;;;5.40;3.10;;;;;;;17.78;41.61;101749.11;109559;1254;73186;-88
2023/04/16 08:24:12;;;;;;;4.50;2.80;;;;;;;18.09;41.13;101750.77;109517;1253;59272;-87
2023/04/16 08:26:39;;;;;;;10.50;3.80;;;;;;;18.43;40.07;101752.88;109586;1253;60109;-87
2023/04/16 08:29:06;;;;;;;5.90;2.30;;;;;;;18.55;39.69;101746.48;109296;1254;73114;-86
2023/04/16 08:31:34;;;;;;;7.50;2.80;;;;;;;18.69;39.88;101737.45;109366;1253;63801;-86
2023/04/16 08:34:01;;;;;;;6.70;3.10;;;;;;;18.93;39.45;101736.37;107865;1254;72658;-86
2023/04/16 08:36:30;;;;;;;6.40;3.10;;;;;;;19.24;38.99;101732.48;106913;1255;61535;-85
2023/04/16 08:38:57;;;;;;;6.70;3.70;;;;;;;19.50;38.09;101741.61;107307;1253;61354;-87
2023/04/16 08:41:31;;;;;;;4.90;3.30;;;;;;;19.69;38.59;101740.44;106608;1254;74712;-86
2023/04/16 08:44:01;;;;;;;5.70;2.70;;;;;;;19.95;37.62;101734.85;106768;1253;63905;-86
2023/04/16 08:46:28;;;;;;;4.30;2.40;;;;;;;20.11;37.22;101722.99;106761;1254;73972;-86
2023/04/16 08:48:55;;;;;;;8.10;2.70;;;;;;;20.35;36.79;101723.91;106953;1254;60443;-86
2023/04/16 08:51:23;;;;;;;5.10;3.20;;;;;;;20.47;36.05;101718.79;106853;1253;61720;-86
2023/04/16 08:53:59;;;;;;;4.80;3.30;;;;;;;20.55;36.52;101719.05;106892;1254;74349;-89
2023/04/16 08:56:26;;;;;;;5.70;3.10;;;;;;;20.75;35.94;101716.21;107034;1254;64887;-87
2023/04/16 08:58:57;;;;;;;6.70;3.20;;;;;;;20.86;35.41;101716.06;107410;1254;72436;-87
2023/04/16 09:01:25;;;;;;;5.10;3.40;;;;;;;20.93;35.68;101710.42;107156;1254;60475;-88
2023/04/16 09:03:52;;;;;;;5.50;4.20;;;;;;;21.01;35.05;101715.48;106984;1254;60438;-90
2023/04/16 09:06:36;;;;;;;6.10;3.10;;;;;;;21.03;35.15;101711.90;107561;1254;74625;-86
2023/04/16 09:09:07;;;;;;;6.30;3.30;;;;;;;21.11;35.10;101715.42;106895;1254;62516;-87
2023/04/16 09:11:35;;;;;;;8.50;2.70;;;;;;;21.30;34.78;101716.45;106744;1254;73670;-89
2023/04/16 09:14:02;;;;;;;7.90;2.30;;;;;;;21.45;34.60;101714.25;106742;1257;60395;-89
2023/04/16 09:16:32;;;;;;;9.40;3.40;;;;;;;21.56;34.27;101708.52;106512;1254;61781;-89
2023/04/16 09:18:59;;;;;;;4.20;2.20;;;;;;;21.67;34.14;101724.79;106588;1253;74577;-91
2023/04/16 09:21:26;;;;;;;5.60;2.80;;;;;;;21.55;33.37;101723.52;106539;1254;64809;-87
2023/04/16 09:23:53;;;;;;;4.80;2.40;;;;;;;21.27;33.38;101718.67;106487;1254;74204;-90
2023/04/16 09:26:20;;;;;;;11.30;2.80;;;;;;;21.00;33.82;101717.14;106279;1254;60479;-88
2023/04/16 09:28:49;;;;;;;7.70;3.10;;;;;;;20.82;34.15;101713.89;106615;1253;61352;-88
2023/04/16 09:31:17;;;;;;;6.30;2.80;;;;;;;20.60;34.62;101707.79;109282;1258;73678;-87
2023/04/16 09:34:13;;;;;;;4.10;2.10;;;;;;;20.53;34.99;101706.36;109386;1253;64514;-88
2023/04/16 09:36:40;;;;;;;5.10;2.20;;;;;;;20.73;34.81;101694.23;108955;1259;71963;-88
2023/04/16 09:39:08;;;;;;;5.20;2.30;;;;;;;20.91;34.91;101702.58;108990;1260;60179;-84
2023/04/16 09:41:38;;;;;;;3.30;1.70;;;;;;;21.05;34.30;101703.54;109023;1259;60533;-87
2023/04/16 09:44:05;;;;;;;7.60;2.40;;;;;;;21.06;34.30;101702.14;109007;1260;73822;-87
2023/04/16 09:46:42;;;;;;;4.60;2.70;;;;;;;21.04;34.63;101700.59;109088;1260;63634;-87
2023/04/16 09:49:16;;;;;;;6.90;2.40;;;;;;;21.14;34.65;101706.33;108828;1259;72491;-86
2023/04/16 09:51:46;;;;;;;7.40;2.40;;;;;;;21.08;33.57;101708.61;108813;1259;61211;-86
2023/04/16 09:54:15;;;;;;;4.70;2.00;;;;;;;20.72;33.75;101701.44;108981;1260;60232;-88
2023/04/16 09:56:43;;;;;;;2.80;2.30;;;;;;;20.44;34.54;101699.86;107544;1263;73871;-84
2023/04/16 09:59:18;;;;;;;5.40;2.20;;;;;;;20.28;34.89;101699.57;106915;1260;63784;-87
2023/04/16 10:01:45;;;;;;;11.10;7.00;;;;;;;20.33;35.39;101707.14;106646;1260;72462;-85
2023/04/16 10:04:13;;;;;;;5.20;2.50;;;;;;;20.47;35.49;101703.15;107788;1260;61360;-86
2023/04/16 10:06:39;;;;;;;5.00;2.60;;;;;;;20.64;35.03;101707.04;107047;1260;60373;-87
2023/04/16 10:09:08;;;;;;;3.20;2.20;;;;;;;20.79;34.51;101704.77;105796;1260;74116;-88
2023/04/16 10:11:35;;;;;;;7.80;2.40;;;;;;;20.84;34.27;101705.86;105732;1260;65288;-89
2023/04/16 10:14:03;;;;;;;5.20;2.20;;;;;;;20.85;34.55;101702.59;106252;1254;72182;-85
2023/04/16 10:16:31;;;;;;;4.50;2.50;;;;;;;20.80;34.32;101708.52;106289;1254;61297;-88
2023/04/16 10:18:58;;;;;;;5.80;2.70;;;;;;;20.58;34.99;101709.20;106351;1254;60686;-86
2023/04/16 10:21:32;;;;;;;6.90;3.00;;;;;;;20.27;35.39;101710.14;106239;1254;74318;-87
2023/04/16 10:23:59;;;;;;;4.70;2.40;;;;;;;19.93;35.29;101716.33;106052;1254;65099;-86
2023/04/16 10:26:26;;;;;;;2.90;1.80;;;;;;;19.52;35.90;101707.59;106088;1254;73645;-88
2023/04/16 10:28:54;;;;;;;6.10;2.40;;;;;;;19.09;36.37;101705.81;106232;1253;61318;-86
2023/04/16 10:31:21;;;;;;;3.80;2.80;;;;;;;18.77;37.08;101697.52;106040;1254;61328;-86
2023/04/16 10:33:48;;;;;;;6.70;4.80;;;;;;;18.53;37.43;101702.68;106203;1259;74817;-87
2023/04/16 10:36:17;;;;;;;4.60;3.30;;;;;;;18.41;37.94;101699.92;106131;1253;64758;-88
2023/04/16 10:38:53;;;;;;;6.10;3.00;;;;;;;18.50;38.12;101698.47;105794;1259;73658;-86
2023/04/16 10:41:20;;;;;;;2.40;1.70;;;;;;;18.77;37.93;101697.02;106271;1254;61434;-87
2023/04/16 10:43:50;;;;;;;6.60;3.20;;;;;;;19.01;37.26;101704.31;106446;1254;60586;-85
2023/04/16 10:46:21;;;;;;;3.30;2.10;;;;;;;19.06;37.26;101699.16;106561;1254;74754;-88
2023/04/16 10:48:53;;;;;;;5.90;2.30;;;;;;;18.95;37.33;101693.66;106442;1254;64904;-89
2023/04/16 10:51:34;;;;;;;6.60;3.40;;;;;;;19.00;37.61;101688.46;106661;1253;74397;-87
2023/04/16 10:54:27;;;;;;;5.20;2.80;;;;;;;19.14;37.16;101691.66;106502;1254;60460;-86
2023/04/16 10:56:56;;;;;;;2.70;2.00;;;;;;;19.14;36.63;101691.83;106920;1257;60540;-86
2023/04/16 10:59:23;;;;;;;3.30;1.90;;;;;;;18.99;36.90;101688.20;107240;1257;75108;-87
2023/04/16 11:01:52;;;;;;;7.80;1.80;;;;;;;18.87;37.43;101683.31;107617;1254;64478;-86
2023/04/16 11:04:20;;;;;;;5.10;2.00;;;;;;;18.82;37.84;101684.06;106563;1254;72666;-87
2023/04/16 11:07:13;;;;;;;5.30;2.70;;;;;;;18.87;37.21;101676.75;106229;1258;60594;-88
2023/04/16 11:09:46;;;;;;;6.70;2.20;;;;;;;18.90;37.25;101684.45;106391;1254;61463;-86
2023/04/16 11:12:26;;;;;;;4.70;2.40;;;;;;;18.91;37.19;101677.64;106387;1254;73732;-90
2023/04/16 11:15:05;;;;;;;4.20;2.00;;;;;;;19.03;37.61;101668.41;106743;1253;64669;-86
2023/04/16 11:17:38;;;;;;;7.30;4.10;;;;;;;19.29;38.07;101669.04;107352;1254;73481;-87
2023/04/16 11:20:07;;;;;;;6.20;2.40;;;;;;;19.58;36.91;101668.25;106526;1258;60458;-86
2023/04/16 11:22:52;;;;;;;5.00;2.00;;;;;;;19.78;36.55;101664.49;106777;1254;60775;-86
2023/04/16 11:25:21;;;;;;;2.70;1.90;;;;;;;19.94;36.15;101664.08;106598;1258;73721;-84
2023/04/16 11:27:48;;;;;;;6.10;2.40;;;;;;;20.06;36.06;101662.55;106508;1254;63616;-85
2023/04/16 11:30:15;;;;;;;2.80;2.00;;;;;;;20.03;35.60;101656.59;106586;1257;73630;-85
2023/04/16 11:32:42;;;;;;;3.50;2.30;;;;;;;19.98;35.78;101655.98;106689;1254;60414;-85
2023/04/16 11:35:17;;;;;;;5.20;1.90;;;;;;;19.97;35.67;101663.98;108169;1253;61013;-86
2023/04/16 11:37:47;;;;;;;7.00;2.00;;;;;;;19.79;35.79;101665.67;106960;1254;73744;-86
2023/04/16 11:40:14;;;;;;;4.00;2.60;;;;;;;19.62;35.84;101661.91;106584;1253;65412;-85
2023/04/16 11:42:43;;;;;;;4.70;3.10;;;;;;;19.49;36.26;101657.29;106667;1254;72258;-88
2023/04/16 11:45:12;;;;;;;6.50;3.30;;;;;;;19.41;37.41;101651.67;106883;1254;60982;-88
2023/04/16 11:47:50;;;;;;;6.90;3.30;;;;;;;19.51;36.86;101647.35;107160;1254;61621;-88